Time;durP1;ratioP1;P1;durP2;ratioP2;P2;SDS_P1;SDS_P2;PMS_P1;PMS_P2;Temp;Humidity;BMP_temperature;BMP_pressure;BME280_temperature;BME280_humidity;BME280_pressure;Samples;Min_cycle;Max_cycle;Signal;HPM_P1;HPM_P2
2023/09/12 00:02:02;;;;;;;;;;;20.90;1.00;;;;;;5110297;28;19919;-75
2023/09/12 00:04:27;;;;;;;;;;;20.90;1.00;;;;;;5110776;28;19926;-75
2023/09/12 00:06:53;;;;;;;;;;;20.80;1.00;;;;;;5110236;27;20549;-75
2023/09/12 00:09:19;;;;;;;;;;;20.90;1.00;;;;;;5110922;27;19967;-74
2023/09/12 00:11:44;;;;;;;;;;;20.80;1.00;;;;;;5110009;28;19919;-74
2023/09/12 00:14:14;;;;;;;;;;;20.80;1.00;;;;;;5110258;28;19920;-75
2023/09/12 00:16:39;;;;;;;;;;;20.80;1.00;;;;;;5110563;28;19920;-74
2023/09/12 00:19:05;;;;;;;;;;;20.80;1.00;;;;;;5110260;28;19924;-74
2023/09/12 00:21:30;;;;;;;;;;;20.80;1.00;;;;;;5109147;28;19933;-75
2023/09/12 00:23:56;;;;;;;;;;;20.80;1.00;;;;;;5109790;28;19946;-75
2023/09/12 00:26:21;;;;;;;;;;;20.80;1.00;;;;;;5109935;28;19920;-75
2023/09/12 00:28:47;;;;;;;;;;;20.80;1.00;;;;;;5119432;28;19920;-75
2023/09/12 00:31:12;;;;;;;;;;;20.70;1.00;;;;;;5110117;28;19962;-75
2023/09/12 00:33:38;;;;;;;;;;;20.70;1.00;;;;;;5110212;28;20361;-75
2023/09/12 00:36:04;;;;;;;;;;;20.60;1.00;;;;;;5109922;28;19973;-75
2023/09/12 00:38:29;;;;;;;;;;;20.60;1.00;;;;;;5110360;28;19919;-75
2023/09/12 00:40:55;;;;;;;;;;;20.60;1.00;;;;;;5109775;28;19919;-75
2023/09/12 00:43:20;;;;;;;;;;;20.60;1.00;;;;;;5127874;28;20380;-75
2023/09/12 00:45:46;;;;;;;;;;;20.60;1.00;;;;;;5109272;28;19919;-75
2023/09/12 00:48:12;;;;;;;;;;;20.60;1.00;;;;;;5105364;28;19923;-76
2023/09/12 00:50:38;;;;;;;;;;;20.60;1.00;;;;;;5121750;28;19926;-75
2023/09/12 00:53:04;;;;;;;;;;;20.50;1.00;;;;;;5128966;28;19926;-75
2023/09/12 00:55:31;;;;;;;;;;;20.50;1.00;;;;;;5117796;28;20258;-75
2023/09/12 00:57:57;;;;;;;;;;;20.50;1.00;;;;;;5127670;28;20007;-75
2023/09/12 01:00:22;;;;;;;;;;;20.50;1.00;;;;;;5129759;28;19981;-75
2023/09/12 01:02:49;;;;;;;;;;;20.50;1.00;;;;;;5129213;28;19923;-75
2023/09/12 01:05:15;;;;;;;;;;;20.40;1.00;;;;;;5119396;28;19920;-75
2023/09/12 01:07:42;;;;;;;;;;;20.40;1.00;;;;;;5127868;28;19923;-76
2023/09/12 01:10:08;;;;;;;;;;;20.40;1.00;;;;;;5117073;28;20015;-75
2023/09/12 01:12:33;;;;;;;;;;;20.40;1.00;;;;;;5128286;28;20440;-75
2023/09/12 01:14:59;;;;;;;;;;;20.40;1.00;;;;;;5122663;28;19923;-75
2023/09/12 01:17:25;;;;;;;;;;;20.40;1.00;;;;;;5109219;28;20377;-75
2023/09/12 01:19:51;;;;;;;;;;;20.40;1.00;;;;;;5109345;28;19926;-75
2023/09/12 01:22:29;;;;;;;;;;;20.40;1.00;;;;;;5109890;28;20352;-75
2023/09/12 01:25:13;;;;;;;;;;;20.40;1.00;;;;;;5090924;28;19923;-74
2023/09/12 01:27:45;;;;;;;;;;;20.40;1.00;;;;;;5100394;28;20657;-75
2023/09/12 01:30:10;;;;;;;;;;;20.40;1.00;;;;;;5110514;28;20002;-75
2023/09/12 01:32:37;;;;;;;;;;;20.30;1.00;;;;;;5110404;28;20006;-75
2023/09/12 01:35:03;;;;;;;;;;;20.30;1.00;;;;;;5112757;27;19964;-75
2023/09/12 01:37:32;;;;;;;;;;;20.30;1.00;;;;;;5113970;27;19923;-75
2023/09/12 01:39:57;;;;;;;;;;;20.30;1.00;;;;;;5114174;27;20018;-74
2023/09/12 01:42:24;;;;;;;;;;;20.30;1.00;;;;;;5112772;28;20064;-74
2023/09/12 01:44:51;;;;;;;;;;;20.30;1.00;;;;;;5112532;28;19920;-74
2023/09/12 01:47:17;;;;;;;;;;;20.30;1.00;;;;;;5106286;27;19919;-74
2023/09/12 01:49:46;;;;;;;;;;;20.20;1.00;;;;;;5131606;27;20300;-74
2023/09/12 01:52:13;;;;;;;;;;;20.20;1.00;;;;;;5132651;27;19931;-74
2023/09/12 01:54:39;;;;;;;;;;;20.20;1.00;;;;;;5128861;27;19926;-75
2023/09/12 01:57:05;;;;;;;;;;;20.20;1.00;;;;;;5120745;27;19926;-74
2023/09/12 01:59:31;;;;;;;;;;;20.20;1.00;;;;;;5129438;27;19919;-75
2023/09/12 02:01:56;;;;;;;;;;;20.20;1.00;;;;;;5113258;27;19924;-75
2023/09/12 02:04:22;;;;;;;;;;;20.20;1.00;;;;;;5113324;27;19927;-75
2023/09/12 02:06:47;;;;;;;;;;;20.20;1.00;;;;;;5095018;28;20352;-75
2023/09/12 02:09:13;;;;;;;;;;;20.10;1.00;;;;;;5093861;28;20281;-74
2023/09/12 02:11:38;;;;;;;;;;;20.10;1.00;;;;;;5112426;28;19919;-75
2023/09/12 02:14:04;;;;;;;;;;;20.10;1.00;;;;;;5112132;28;19924;-75
2023/09/12 02:16:31;;;;;;;;;;;20.10;1.00;;;;;;5112702;27;19930;-75
2023/09/12 02:18:56;;;;;;;;;;;20.10;1.00;;;;;;5111908;28;19923;-74
2023/09/12 02:21:22;;;;;;;;;;;20.10;1.00;;;;;;5112883;27;19920;-75
2023/09/12 02:23:47;;;;;;;;;;;20.00;1.00;;;;;;5113048;27;19963;-74
2023/09/12 02:26:13;;;;;;;;;;;20.00;1.00;;;;;;5113096;27;20330;-75
2023/09/12 02:28:38;;;;;;;;;;;20.00;1.00;;;;;;5113061;27;20419;-75
2023/09/12 02:31:09;;;;;;;;;;;20.00;1.00;;;;;;5095041;27;20293;-74
2023/09/12 02:33:34;;;;;;;;;;;19.90;1.00;;;;;;5112857;27;19988;-74
2023/09/12 02:36:00;;;;;;;;;;;19.90;1.00;;;;;;5112429;27;20381;-75
2023/09/12 02:38:25;;;;;;;;;;;19.90;1.00;;;;;;5093282;28;19923;-74
2023/09/12 02:40:51;;;;;;;;;;;19.80;1.00;;;;;;5113033;27;19920;-75
2023/09/12 02:43:16;;;;;;;;;;;19.70;1.00;;;;;;5111599;28;20285;-74
2023/09/12 02:45:42;;;;;;;;;;;19.70;1.00;;;;;;5111700;28;19924;-75
2023/09/12 02:48:08;;;;;;;;;;;19.70;1.00;;;;;;5112627;27;19924;-74
2023/09/12 02:50:33;;;;;;;;;;;19.60;1.00;;;;;;5099595;28;19919;-74
2023/09/12 02:52:59;;;;;;;;;;;19.70;1.00;;;;;;5113369;27;20425;-74
2023/09/12 02:55:24;;;;;;;;;;;19.60;1.00;;;;;;5112443;27;19920;-74
2023/09/12 02:57:50;;;;;;;;;;;19.60;1.00;;;;;;5113423;27;19927;-74
2023/09/12 03:00:15;;;;;;;;;;;19.60;1.00;;;;;;5111359;28;20286;-74
2023/09/12 03:02:41;;;;;;;;;;;19.60;1.00;;;;;;5112055;27;20065;-74
2023/09/12 03:05:06;;;;;;;;;;;19.50;1.00;;;;;;5114137;27;19947;-74
2023/09/12 03:07:32;;;;;;;;;;;19.50;1.00;;;;;;5113759;27;20296;-75
2023/09/12 03:09:57;;;;;;;;;;;19.50;1.00;;;;;;5112348;27;19923;-74
2023/09/12 03:12:23;;;;;;;;;;;19.40;1.00;;;;;;5110621;28;20450;-75
2023/09/12 03:14:48;;;;;;;;;;;19.40;1.00;;;;;;5112576;27;19920;-75
2023/09/12 03:17:14;;;;;;;;;;;19.40;1.00;;;;;;5112717;27;19919;-75
2023/09/12 03:19:39;;;;;;;;;;;19.40;1.00;;;;;;5113897;27;19919;-75
2023/09/12 03:22:05;;;;;;;;;;;19.30;1.00;;;;;;5110984;28;20378;-75
2023/09/12 03:24:31;;;;;;;;;;;19.30;1.00;;;;;;5110775;27;19924;-75
2023/09/12 03:26:56;;;;;;;;;;;19.30;1.00;;;;;;5093724;28;19950;-75
2023/09/12 03:29:22;;;;;;;;;;;19.30;1.00;;;;;;5111525;27;20373;-74
2023/09/12 03:31:48;;;;;;;;;;;19.30;1.00;;;;;;5111426;28;20032;-75
2023/09/12 03:34:13;;;;;;;;;;;19.30;1.00;;;;;;5111637;27;20356;-74
2023/09/12 03:36:39;;;;;;;;;;;19.20;1.00;;;;;;5092932;28;19923;-75
2023/09/12 03:39:08;;;;;;;;;;;19.20;1.00;;;;;;5108880;28;20366;-75
2023/09/12 03:41:36;;;;;;;;;;;19.20;1.00;;;;;;5111022;28;19919;-75
2023/09/12 03:44:02;;;;;;;;;;;19.10;1.00;;;;;;5110911;27;20344;-75
2023/09/12 03:46:27;;;;;;;;;;;19.10;1.00;;;;;;5109998;28;20003;-74
2023/09/12 03:48:53;;;;;;;;;;;19.10;1.00;;;;;;5111091;27;20274;-74
2023/09/12 03:51:18;;;;;;;;;;;19.00;1.00;;;;;;5092814;28;19924;-74
2023/09/12 03:53:44;;;;;;;;;;;19.00;1.00;;;;;;5110620;27;19920;-74
2023/09/12 03:56:14;;;;;;;;;;;19.00;1.00;;;;;;5109695;28;19920;-74
2023/09/12 03:58:39;;;;;;;;;;;19.00;1.00;;;;;;5107065;28;20419;-75
2023/09/12 04:01:05;;;;;;;;;;;19.00;1.00;;;;;;5109758;27;19920;-75
2023/09/12 04:03:30;;;;;;;;;;;18.90;1.00;;;;;;5113665;27;19967;-75
2023/09/12 04:05:56;;;;;;;;;;;18.90;1.00;;;;;;5091403;28;20014;-75
2023/09/12 04:08:21;;;;;;;;;;;18.80;1.00;;;;;;5109674;28;20018;-75
2023/09/12 04:10:47;;;;;;;;;;;18.90;1.00;;;;;;5093234;28;20282;-75
2023/09/12 04:13:12;;;;;;;;;;;18.80;1.00;;;;;;5112225;28;19920;-75
2023/09/12 04:15:38;;;;;;;;;;;18.80;1.00;;;;;;5110211;28;19923;-75
2023/09/12 04:18:04;;;;;;;;;;;18.80;1.00;;;;;;5110305;28;19920;-75
2023/09/12 04:20:29;;;;;;;;;;;18.80;1.00;;;;;;5092086;28;19920;-75
2023/09/12 04:22:55;;;;;;;;;;;18.80;1.00;;;;;;5112023;28;19920;-74
2023/09/12 04:25:20;;;;;;;;;;;18.80;1.00;;;;;;5109900;28;19924;-75
2023/09/12 04:27:46;;;;;;;;;;;18.80;1.00;;;;;;5110135;28;19920;-74
2023/09/12 04:30:12;;;;;;;;;;;18.70;1.00;;;;;;5111145;28;19924;-74
2023/09/12 04:32:37;;;;;;;;;;;18.70;1.00;;;;;;5091387;28;19947;-75
2023/09/12 04:35:03;;;;;;;;;;;18.70;1.00;;;;;;5109897;28;20019;-74
2023/09/12 04:37:28;;;;;;;;;;;18.70;1.00;;;;;;5108173;28;19920;-74
2023/09/12 04:39:54;;;;;;;;;;;18.70;1.00;;;;;;5111261;28;20014;-75
2023/09/12 04:42:20;;;;;;;;;;;18.70;1.00;;;;;;5112248;28;19920;-75
2023/09/12 04:44:46;;;;;;;;;;;18.70;1.00;;;;;;5110648;28;20529;-75
2023/09/12 04:47:12;;;;;;;;;;;18.60;1.00;;;;;;5107050;28;19919;-75
2023/09/12 04:49:38;;;;;;;;;;;18.70;1.00;;;;;;5111436;28;19965;-75
2023/09/12 04:52:04;;;;;;;;;;;18.60;1.00;;;;;;5107092;28;20002;-75
2023/09/12 04:54:29;;;;;;;;;;;18.60;1.00;;;;;;5110292;28;20038;-75
2023/09/12 04:56:55;;;;;;;;;;;18.60;1.00;;;;;;5109658;28;20032;-75
2023/09/12 04:59:20;;;;;;;;;;;18.60;1.00;;;;;;5109225;28;19919;-74
2023/09/12 05:01:46;;;;;;;;;;;18.60;1.00;;;;;;5110000;28;20030;-74
2023/09/12 05:04:11;;;;;;;;;;;18.60;1.00;;;;;;5109886;28;20880;-75
2023/09/12 05:06:37;;;;;;;;;;;18.50;1.00;;;;;;5091167;28;19920;-75
2023/09/12 05:09:03;;;;;;;;;;;18.50;1.00;;;;;;5112391;27;20010;-75
2023/09/12 05:11:28;;;;;;;;;;;18.50;1.00;;;;;;5091618;28;19931;-74
2023/09/12 05:13:54;;;;;;;;;;;18.40;1.00;;;;;;5107548;27;20007;-71
2023/09/12 05:16:19;;;;;;;;;;;18.40;1.00;;;;;;5115983;27;19920;-73
2023/09/12 05:18:45;;;;;;;;;;;18.40;1.00;;;;;;5112946;28;19927;-73
2023/09/12 05:21:10;;;;;;;;;;;18.40;1.00;;;;;;5112346;28;19961;-74
2023/09/12 05:23:36;;;;;;;;;;;18.40;1.00;;;;;;5113976;27;19920;-73
2023/09/12 05:26:02;;;;;;;;;;;18.40;1.00;;;;;;5080306;28;19927;-75
2023/09/12 05:28:28;;;;;;;;;;;18.40;1.50;;;;;;5113150;28;20047;-74
2023/09/12 05:30:53;;;;;;;;;;;18.40;2.60;;;;;;5112720;28;20473;-74
2023/09/12 05:33:19;;;;;;;;;;;18.40;2.80;;;;;;5113188;28;19926;-74
2023/09/12 05:35:44;;;;;;;;;;;18.40;3.40;;;;;;5113798;27;19923;-75
2023/09/12 05:38:10;;;;;;;;;;;18.50;4.00;;;;;;5113454;28;19919;-74
2023/09/12 05:40:36;;;;;;;;;;;18.40;4.10;;;;;;5113075;27;19930;-75
2023/09/12 05:43:02;;;;;;;;;;;18.40;5.20;;;;;;5112985;27;20406;-74
2023/09/12 05:45:29;;;;;;;;;;;18.40;6.00;;;;;;5112495;27;20402;-74
2023/09/12 05:47:55;;;;;;;;;;;18.40;6.40;;;;;;5112749;28;19923;-74
2023/09/12 05:50:20;;;;;;;;;;;18.40;7.70;;;;;;5113262;27;20003;-74
2023/09/12 05:52:46;;;;;;;;;;;18.40;8.10;;;;;;5112841;28;19920;-74
2023/09/12 05:55:11;;;;;;;;;;;18.40;8.10;;;;;;5112592;27;19927;-74
2023/09/12 05:57:37;;;;;;;;;;;18.40;7.60;;;;;;5112200;28;19925;-74
2023/09/12 06:00:05;;;;;;;;;;;18.40;8.50;;;;;;5112802;28;19970;-75
2023/09/12 06:02:32;;;;;;;;;;;18.40;8.70;;;;;;5112551;28;19920;-74
2023/09/12 06:04:58;;;;;;;;;;;18.40;9.10;;;;;;5112679;27;19920;-74
2023/09/12 06:07:25;;;;;;;;;;;18.40;9.70;;;;;;5094812;28;19930;-75
2023/09/12 06:09:50;;;;;;;;;;;18.50;10.10;;;;;;5090280;28;19961;-74
2023/09/12 06:12:16;;;;;;;;;;;18.50;10.30;;;;;;5113637;27;19955;-74
2023/09/12 06:14:41;;;;;;;;;;;18.50;10.70;;;;;;5095302;28;19919;-74
2023/09/12 06:17:07;;;;;;;;;;;18.50;10.80;;;;;;5095233;28;19927;-74
2023/09/12 06:19:32;;;;;;;;;;;18.50;10.90;;;;;;5094371;28;20584;-74
2023/09/12 06:21:58;;;;;;;;;;;18.50;10.80;;;;;;5113001;27;20463;-75
2023/09/12 06:24:23;;;;;;;;;;;18.50;11.10;;;;;;5113151;27;19920;-75
2023/09/12 06:26:49;;;;;;;;;;;18.60;12.00;;;;;;5113908;27;19965;-74
2023/09/12 06:29:15;;;;;;;;;;;18.60;11.90;;;;;;5111581;28;19920;-74
2023/09/12 06:31:41;;;;;;;;;;;18.60;12.90;;;;;;5113472;27;19919;-74
2023/09/12 06:34:07;;;;;;;;;;;18.60;13.90;;;;;;5109667;28;19919;-74
2023/09/12 06:36:32;;;;;;;;;;;18.70;13.90;;;;;;5113579;27;19926;-75
2023/09/12 06:38:58;;;;;;;;;;;18.80;13.60;;;;;;5110823;28;19919;-75
2023/09/12 06:41:24;;;;;;;;;;;18.80;14.10;;;;;;5078613;28;19944;-74
2023/09/12 06:43:50;;;;;;;;;;;18.80;14.40;;;;;;5115800;27;19945;-75
2023/09/12 06:46:17;;;;;;;;;;;18.90;14.60;;;;;;5113913;27;20405;-75
2023/09/12 06:48:44;;;;;;;;;;;19.00;16.50;;;;;;5109184;28;20298;-74
2023/09/12 06:51:10;;;;;;;;;;;19.00;15.80;;;;;;5113806;27;19926;-74
2023/09/12 06:53:36;;;;;;;;;;;19.00;14.70;;;;;;5116148;27;20018;-74
2023/09/12 06:56:03;;;;;;;;;;;19.10;13.90;;;;;;5095651;28;20449;-74
2023/09/12 06:58:28;;;;;;;;;;;19.10;12.80;;;;;;5113114;27;19928;-74
2023/09/12 07:00:54;;;;;;;;;;;19.10;11.50;;;;;;5111674;28;20392;-75
2023/09/12 07:03:19;;;;;;;;;;;19.10;10.70;;;;;;5111880;27;20438;-75
2023/09/12 07:05:44;;;;;;;;;;;19.10;10.10;;;;;;5111340;28;19919;-75
2023/09/12 07:08:10;;;;;;;;;;;19.00;10.60;;;;;;5111713;27;19930;-74
2023/09/12 07:10:36;;;;;;;;;;;19.10;12.20;;;;;;5093469;28;20444;-75
2023/09/12 07:13:02;;;;;;;;;;;19.20;13.50;;;;;;5110820;28;19927;-74
2023/09/12 07:15:27;;;;;;;;;;;19.20;12.80;;;;;;5111119;28;19920;-74
2023/09/12 07:17:53;;;;;;;;;;;19.20;11.10;;;;;;5111409;27;20030;-74
2023/09/12 07:20:19;;;;;;;;;;;19.20;10.80;;;;;;5111106;27;20457;-74
2023/09/12 07:22:45;;;;;;;;;;;19.20;9.20;;;;;;5111674;27;19932;-74
2023/09/12 07:25:12;;;;;;;;;;;19.20;9.70;;;;;;5111178;28;20053;-75
2023/09/12 07:27:37;;;;;;;;;;;19.20;10.00;;;;;;5111175;27;19924;-74
2023/09/12 07:30:04;;;;;;;;;;;19.30;10.50;;;;;;5111527;28;19927;-75
2023/09/12 07:32:30;;;;;;;;;;;19.20;10.40;;;;;;5110020;27;19989;-74
2023/09/12 07:34:55;;;;;;;;;;;19.20;9.70;;;;;;5110923;28;19959;-74
2023/09/12 07:37:21;;;;;;;;;;;19.30;10.90;;;;;;5091965;28;19962;-75
2023/09/12 07:39:46;;;;;;;;;;;19.30;10.30;;;;;;5092484;28;19926;-74
2023/09/12 07:42:12;;;;;;;;;;;19.30;11.60;;;;;;5110644;28;19926;-75
2023/09/12 07:44:37;;;;;;;;;;;19.30;11.10;;;;;;5111050;27;20315;-75
2023/09/12 07:47:03;;;;;;;;;;;19.40;11.40;;;;;;5092516;28;20023;-74
2023/09/12 07:49:29;;;;;;;;;;;19.40;12.60;;;;;;5110182;28;19941;-74
2023/09/12 07:51:57;;;;;;;;;;;19.50;12.90;;;;;;5117994;27;20296;-74
2023/09/12 07:54:22;;;;;;;;;;;19.60;13.20;;;;;;5114091;27;19919;-74
2023/09/12 07:56:48;;;;;;;;;;;19.80;14.30;;;;;;5117830;27;19931;-75
2023/09/12 07:59:14;;;;;;;;;;;20.00;13.50;;;;;;5114176;27;20377;-75
2023/09/12 08:01:41;;;;;;;;;;;20.10;8.70;;;;;;5117104;27;21608;-75
2023/09/12 08:04:07;;;;;;;;;;;20.10;4.60;;;;;;5091545;28;19979;-75
2023/09/12 08:06:33;;;;;;;;;;;20.20;4.30;;;;;;5109738;27;20020;-75
2023/09/12 08:08:58;;;;;;;;;;;20.20;2.60;;;;;;5109765;28;19934;-75
2023/09/12 08:11:24;;;;;;;;;;;20.20;1.00;;;;;;5109813;27;19930;-75
2023/09/12 08:13:49;;;;;;;;;;;20.30;1.00;;;;;;5110622;27;19924;-74
2023/09/12 08:16:15;;;;;;;;;;;20.30;1.00;;;;;;5110415;27;19954;-75
2023/09/12 08:18:41;;;;;;;;;;;20.30;1.00;;;;;;5111370;27;20007;-74
2023/09/12 08:21:06;;;;;;;;;;;20.30;1.00;;;;;;5110890;28;19985;-75
2023/09/12 08:23:32;;;;;;;;;;;20.30;1.00;;;;;;5110245;28;19934;-74
2023/09/12 08:25:57;;;;;;;;;;;20.30;1.00;;;;;;5113143;28;20183;-75
2023/09/12 08:28:23;;;;;;;;;;;20.30;1.00;;;;;;5111437;28;19931;-75
2023/09/12 08:30:49;;;;;;;;;;;20.40;1.00;;;;;;5112855;28;19924;-75
2023/09/12 08:33:14;;;;;;;;;;;20.40;1.00;;;;;;5111611;28;20015;-74
2023/09/12 08:35:40;;;;;;;;;;;20.40;1.00;;;;;;5109685;28;19970;-75
2023/09/12 08:38:06;;;;;;;;;;;20.40;1.00;;;;;;5111652;28;19924;-74
2023/09/12 08:40:32;;;;;;;;;;;20.50;1.00;;;;;;5113063;28;19980;-74
2023/09/12 08:42:58;;;;;;;;;;;20.60;1.00;;;;;;5112950;28;19977;-75
2023/09/12 08:45:24;;;;;;;;;;;20.80;1.00;;;;;;5116677;27;19932;-75
2023/09/12 08:47:50;;;;;;;;;;;20.90;1.00;;;;;;5115966;27;19930;-75
2023/09/12 08:50:19;;;;;;;;;;;21.10;1.00;;;;;;5116977;27;19932;-75
2023/09/12 08:52:45;;;;;;;;;;;21.10;1.00;;;;;;5113749;28;19976;-75
2023/09/12 08:55:11;;;;;;;;;;;21.10;1.00;;;;;;5109137;27;19946;-75
2023/09/12 08:57:43;;;;;;;;;;;21.00;1.00;;;;;;5116137;27;20373;-75
2023/09/12 09:00:12;;;;;;;;;;;21.00;1.00;;;;;;5117490;27;20389;-75
2023/09/12 09:02:39;;;;;;;;;;;20.90;1.00;;;;;;5116569;27;20036;-74
2023/09/12 09:05:09;;;;;;;;;;;20.80;1.00;;;;;;5100366;28;20042;-75
2023/09/12 09:07:38;;;;;;;;;;;20.90;1.00;;;;;;5116388;27;19924;-74
2023/09/12 09:10:05;;;;;;;;;;;20.90;1.00;;;;;;5113251;28;19924;-75
2023/09/12 09:12:31;;;;;;;;;;;20.90;1.00;;;;;;5114299;27;19955;-75
2023/09/12 09:14:57;;;;;;;;;;;20.90;1.00;;;;;;5113410;28;20584;-74
2023/09/12 09:17:23;;;;;;;;;;;20.90;1.00;;;;;;5114981;27;19928;-75
2023/09/12 09:19:48;;;;;;;;;;;20.90;1.00;;;;;;5114047;27;19931;-75
2023/09/12 09:22:14;;;;;;;;;;;20.90;1.00;;;;;;5113884;27;19923;-75
2023/09/12 09:24:39;;;;;;;;;;;20.80;1.00;;;;;;5113162;27;19947;-75
2023/09/12 09:27:05;;;;;;;;;;;20.90;1.00;;;;;;5096056;27;19962;-75
2023/09/12 09:29:33;;;;;;;;;;;20.90;1.00;;;;;;5096331;28;19927;-74
2023/09/12 09:32:00;;;;;;;;;;;21.00;1.00;;;;;;5115455;27;20041;-75
2023/09/12 09:34:27;;;;;;;;;;;21.00;1.00;;;;;;5114299;27;20785;-74
2023/09/12 09:36:53;;;;;;;;;;;21.10;1.00;;;;;;5115267;27;19924;-75
2023/09/12 09:39:20;;;;;;;;;;;21.20;1.00;;;;;;5115165;27;19924;-75
2023/09/12 09:41:49;;;;;;;;;;;21.30;1.00;;;;;;5097011;27;19931;-75
2023/09/12 09:44:15;;;;;;;;;;;21.30;1.00;;;;;;5114503;27;19931;-75
2023/09/12 09:46:44;;;;;;;;;;;21.50;1.00;;;;;;5114677;27;19923;-75
2023/09/12 09:49:10;;;;;;;;;;;21.60;1.00;;;;;;5114519;27;19924;-75
2023/09/12 09:51:42;;;;;;;;;;;21.70;1.00;;;;;;5116038;27;20024;-75
2023/09/12 09:54:08;;;;;;;;;;;21.70;1.00;;;;;;5094775;28;20510;-74
2023/09/12 09:56:44;;;;;;;;;;;21.70;1.00;;;;;;5115401;27;19941;-74
2023/09/12 09:59:13;;;;;;;;;;;21.70;1.00;;;;;;5112839;28;19924;-75
2023/09/12 10:01:39;;;;;;;;;;;21.80;1.00;;;;;;5116127;27;20010;-75
2023/09/12 10:04:04;;;;;;;;;;;21.70;1.00;;;;;;5113978;27;20041;-75
2023/09/12 10:06:31;;;;;;;;;;;21.70;1.00;;;;;;5116493;27;20426;-75
2023/09/12 10:08:57;;;;;;;;;;;21.80;1.00;;;;;;5115154;27;19924;-75
2023/09/12 10:11:24;;;;;;;;;;;21.90;1.00;;;;;;5112589;27;19930;-75
2023/09/12 10:13:52;;;;;;;;;;;22.10;1.00;;;;;;5095965;28;20285;-75
2023/09/12 10:16:20;;;;;;;;;;;22.40;1.00;;;;;;5097771;28;19924;-75
2023/09/12 10:18:49;;;;;;;;;;;22.50;1.00;;;;;;5114996;27;19928;-74
2023/09/12 10:21:17;;;;;;;;;;;22.80;1.00;;;;;;5116271;27;19924;-75
2023/09/12 10:23:48;;;;;;;;;;;23.20;1.00;;;;;;5114910;27;19932;-75
2023/09/12 10:26:13;;;;;;;;;;;23.50;1.00;;;;;;5112405;27;20412;-75
2023/09/12 10:28:43;;;;;;;;;;;23.90;1.00;;;;;;5097205;27;19924;-75
2023/09/12 10:31:10;;;;;;;;;;;24.10;99.90;;;;;;5117109;27;19924;-75
2023/09/12 10:33:36;;;;;;;;;;;24.10;99.90;;;;;;5116005;27;19928;-75
2023/09/12 10:36:08;;;;;;;;;;;23.90;99.90;;;;;;5113267;27;20041;-75
2023/09/12 10:38:36;;;;;;;;;;;23.70;99.90;;;;;;5116739;27;19927;-75
2023/09/12 10:41:03;;;;;;;;;;;23.60;99.90;;;;;;5112186;27;19927;-74
2023/09/12 10:43:29;;;;;;;;;;;23.50;99.90;;;;;;5118073;27;19969;-75
2023/09/12 10:45:56;;;;;;;;;;;23.40;99.90;;;;;;5082616;28;19924;-75
2023/09/12 10:48:23;;;;;;;;;;;23.30;99.90;;;;;;5118721;27;19931;-75
2023/09/12 10:50:49;;;;;;;;;;;23.30;99.90;;;;;;5094384;28;19934;-75
2023/09/12 10:53:15;;;;;;;;;;;23.40;99.90;;;;;;5115514;27;20022;-75
2023/09/12 10:55:57;;;;;;;;;;;23.50;99.90;;;;;;5115924;27;19973;-75
2023/09/12 10:58:23;;;;;;;;;;;23.60;99.90;;;;;;5101504;27;19923;-75
2023/09/12 11:01:12;;;;;;;;;;;23.80;99.90;;;;;;5111527;28;20052;-75
2023/09/12 11:03:38;;;;;;;;;;;23.90;99.90;;;;;;5112834;27;19928;-75
2023/09/12 11:06:05;;;;;;;;;;;24.00;99.90;;;;;;5116371;27;20297;-75
2023/09/12 11:08:35;;;;;;;;;;;24.10;99.90;;;;;;5118128;27;20005;-75
2023/09/12 11:11:16;;;;;;;;;;;24.20;99.90;;;;;;5098866;27;19924;-75
2023/09/12 11:13:43;;;;;;;;;;;24.20;1.00;;;;;;5093096;28;19923;-75
2023/09/12 11:16:14;;;;;;;;;;;24.20;1.00;;;;;;5111989;27;19932;-75
2023/09/12 11:18:58;;;;;;;;;;;24.30;1.00;;;;;;5112700;27;19967;-75
2023/09/12 11:21:33;;;;;;;;;;;24.40;99.90;;;;;;5112164;27;19924;-75
2023/09/12 11:23:58;;;;;;;;;;;24.40;51.80;;;;;;5113582;27;20010;-75
2023/09/12 11:26:25;;;;;;;;;;;24.40;1.00;;;;;;5112510;27;20348;-75
2023/09/12 11:28:50;;;;;;;;;;;24.40;99.90;;;;;;5111588;27;19924;-75
2023/09/12 11:31:28;;;;;;;;;;;24.50;99.90;;;;;;5092786;28;20011;-75
2023/09/12 11:33:54;;;;;;;;;;;24.60;1.00;;;;;;5114387;27;19934;-75
2023/09/12 11:36:19;;;;;;;;;;;24.70;99.90;;;;;;5112404;27;19924;-76
2023/09/12 11:38:49;;;;;;;;;;;24.70;99.90;;;;;;5110808;28;20006;-75
2023/09/12 11:41:34;;;;;;;;;;;24.80;99.90;;;;;;5110605;27;20370;-75
2023/09/12 11:44:02;;;;;;;;;;;24.80;99.90;;;;;;5108059;28;20004;-75
2023/09/12 11:46:28;;;;;;;;;;;24.70;99.90;;;;;;5110193;28;19923;-75
2023/09/12 11:48:56;;;;;;;;;;;24.60;99.90;;;;;;5110693;28;19931;-75
2023/09/12 11:51:26;;;;;;;;;;;24.60;99.90;;;;;;5092852;27;19924;-75
2023/09/12 11:53:53;;;;;;;;;;;24.70;99.90;;;;;;5112671;27;19924;-75
2023/09/12 11:56:19;;;;;;;;;;;24.70;1.00;;;;;;5111299;27;19975;-75
2023/09/12 11:58:44;;;;;;;;;;;25.00;1.00;;;;;;5115555;27;20384;-75
2023/09/12 12:01:12;;;;;;;;;;;25.00;99.90;;;;;;5115152;27;19943;-75
2023/09/12 12:03:38;;;;;;;;;;;25.10;27.70;;;;;;5111846;27;20010;-75
2023/09/12 12:06:04;;;;;;;;;;;25.20;11.60;;;;;;5115162;27;20465;-75
2023/09/12 12:08:30;;;;;;;;;;;25.80;99.90;;;;;;5114499;27;19924;-75
2023/09/12 12:10:57;;;;;;;;;;;26.20;1.00;;;;;;5092342;28;19924;-75
2023/09/12 12:13:23;;;;;;;;;;;26.40;99.90;;;;;;5110330;28;19928;-75
2023/09/12 12:15:48;;;;;;;;;;;26.40;1.00;;;;;;5110193;28;19952;-75
2023/09/12 12:18:14;;;;;;;;;;;26.30;1.00;;;;;;5109649;28;20355;-75
2023/09/12 12:20:40;;;;;;;;;;;26.50;1.00;;;;;;5110776;28;20293;-75
2023/09/12 12:23:05;;;;;;;;;;;26.90;99.90;;;;;;5111473;28;19928;-76
2023/09/12 12:25:33;;;;;;;;;;;27.50;99.90;;;;;;5110110;28;19931;-76
2023/09/12 12:27:58;;;;;;;;;;;28.10;99.90;;;;;;5110202;28;20010;-75
2023/09/12 12:30:24;;;;;;;;;;;28.30;81.50;;;;;;5110004;28;20019;-76
2023/09/12 12:32:50;;;;;;;;;;;28.10;1.00;;;;;;5091397;28;20392;-75
2023/09/12 12:35:19;;;;;;;;;;;28.30;1.00;;;;;;5109897;28;20014;-75
2023/09/12 12:37:45;;;;;;;;;;;28.40;1.00;;;;;;5099962;28;19976;-75
2023/09/12 12:40:14;;;;;;;;;;;28.10;1.00;;;;;;5112627;28;20269;-75
2023/09/12 12:42:43;;;;;;;;;;;27.80;1.00;;;;;;5110101;28;19924;-75
2023/09/12 12:45:12;;;;;;;;;;;27.60;1.00;;;;;;5077605;28;20625;-75
2023/09/12 12:47:38;;;;;;;;;;;28.00;1.00;;;;;;5094366;28;19923;-76
2023/09/12 12:50:13;;;;;;;;;;;28.70;1.00;;;;;;5115097;28;20373;-75
2023/09/12 12:52:39;;;;;;;;;;;29.20;99.90;;;;;;5110010;28;19997;-76
2023/09/12 12:55:16;;;;;;;;;;;29.50;99.90;;;;;;5109580;28;20349;-76
2023/09/12 12:57:43;;;;;;;;;;;29.30;99.90;;;;;;5109508;28;20373;-75
2023/09/12 13:00:10;;;;;;;;;;;28.80;99.90;;;;;;5109350;28;19989;-75
2023/09/12 13:02:36;;;;;;;;;;;28.40;99.90;;;;;;5110030;28;20406;-75
2023/09/12 13:05:02;;;;;;;;;;;28.00;99.90;;;;;;5109184;28;19923;-75
2023/09/12 13:07:27;;;;;;;;;;;27.20;99.90;;;;;;5109952;28;20481;-75
2023/09/12 13:09:53;;;;;;;;;;;26.50;99.90;;;;;;5110580;28;19931;-75
2023/09/12 13:12:19;;;;;;;;;;;25.80;99.90;;;;;;5110539;28;19923;-75
2023/09/12 13:14:44;;;;;;;;;;;25.30;99.90;;;;;;5110622;28;19924;-75
2023/09/12 13:17:10;;;;;;;;;;;24.80;99.90;;;;;;5109638;28;19924;-75
2023/09/12 13:19:35;;;;;;;;;;;24.40;99.90;;;;;;5110319;28;20050;-75
2023/09/12 13:22:01;;;;;;;;;;;24.00;1.00;;;;;;5109821;28;19928;-75
2023/09/12 13:24:26;;;;;;;;;;;23.50;99.90;;;;;;5109230;28;19931;-74
2023/09/12 13:26:53;;;;;;;;;;;23.10;99.90;;;;;;5109373;28;19931;-74
2023/09/12 13:29:19;;;;;;;;;;;22.70;99.90;;;;;;5111094;28;20021;-74
2023/09/12 13:31:45;;;;;;;;;;;22.40;99.90;;;;;;5086630;28;20007;-73
2023/09/12 13:34:10;;;;;;;;;;;22.10;64.30;;;;;;5116741;27;19924;-73
2023/09/12 13:36:36;;;;;;;;;;;21.90;94.10;;;;;;5112802;28;19971;-73
2023/09/12 13:39:02;;;;;;;;;;;21.70;99.90;;;;;;5114607;27;19930;-73
2023/09/12 13:41:28;;;;;;;;;;;21.60;99.90;;;;;;5112877;28;19935;-73
2023/09/12 13:43:53;;;;;;;;;;;21.50;50.90;;;;;;5112516;28;19923;-73
2023/09/12 13:46:19;;;;;;;;;;;21.40;99.90;;;;;;5112811;28;19932;-72
2023/09/12 13:48:44;;;;;;;;;;;21.40;99.90;;;;;;5115140;27;19930;-72
2023/09/12 13:51:10;;;;;;;;;;;21.30;99.90;;;;;;5097532;28;19930;-72
2023/09/12 13:53:35;;;;;;;;;;;21.30;99.90;;;;;;5112612;28;20030;-72
2023/09/12 13:56:02;;;;;;;;;;;21.20;99.90;;;;;;5112621;27;19924;-73
2023/09/12 13:58:27;;;;;;;;;;;21.00;99.90;;;;;;5111949;28;19931;-73
2023/09/12 14:00:53;;;;;;;;;;;20.90;99.90;;;;;;5113014;28;19969;-73
2023/09/12 14:03:18;;;;;;;;;;;20.80;99.90;;;;;;5115011;27;19943;-72
2023/09/12 14:05:44;;;;;;;;;;;20.80;1.00;;;;;;5115273;27;19969;-73
2023/09/12 14:08:09;;;;;;;;;;;20.90;1.00;;;;;;5117379;27;19923;-73
2023/09/12 14:10:35;;;;;;;;;;;20.90;1.00;;;;;;5113597;27;20244;-73
2023/09/12 14:13:01;;;;;;;;;;;20.90;1.00;;;;;;5113491;27;19946;-73
2023/09/12 14:15:26;;;;;;;;;;;20.80;1.00;;;;;;5111675;28;19950;-72
2023/09/12 14:17:52;;;;;;;;;;;20.80;1.00;;;;;;5113825;27;19931;-72
2023/09/12 14:20:17;;;;;;;;;;;20.90;1.00;;;;;;5112632;27;19927;-72
2023/09/12 14:22:43;;;;;;;;;;;20.90;1.00;;;;;;5115242;27;19931;-72